Time;durP1;ratioP1;P1;durP2;ratioP2;P2;SDS_P1;SDS_P2;PMS_P1;PMS_P2;Temp;Humidity;BMP_temperature;BMP_pressure;BME280_temperature;BME280_humidity;BME280_pressure;Samples;Min_cycle;Max_cycle;Signal;HPM_P1;HPM_P2
2023/10/23 00:00:34;;;;;;;1.85;1.35;;;;;;;4.14;100.00;92781.53;2098517;28;20538;-80
2023/10/23 00:01:39;;;;;;;2.13;1.23;;;;;;;4.07;100.00;92784.19;2115110;28;20058;-80
2023/10/23 00:02:40;;;;;;;1.80;1.08;;;;;;;4.05;100.00;92784.59;2118252;27;20029;-80
2023/10/23 00:03:41;;;;;;;2.53;1.10;;;;;;;4.12;100.00;92789.09;2106773;28;20023;-80
2023/10/23 00:04:42;;;;;;;1.45;1.13;;;;;;;4.23;100.00;92787.16;2097757;28;20121;-80
2023/10/23 00:05:43;;;;;;;1.65;1.30;;;;;;;4.17;100.00;92796.63;2090718;28;20025;-80
2023/10/23 00:06:44;;;;;;;2.85;1.30;;;;;;;4.12;100.00;92789.84;2104685;28;20030;-80
2023/10/23 00:07:45;;;;;;;1.75;1.00;;;;;;;4.14;100.00;92792.13;2106603;28;20045;-80
2023/10/23 00:08:46;;;;;;;1.15;1.00;;;;;;;4.11;100.00;92784.94;2102214;28;20028;-80
2023/10/23 00:09:47;;;;;;;2.95;1.17;;;;;;;4.13;100.00;92788.72;2106766;28;20020;-80
2023/10/23 00:10:48;;;;;;;1.73;1.10;;;;;;;4.08;100.00;92785.69;2104655;28;20024;-80
2023/10/23 00:11:49;;;;;;;1.52;1.23;;;;;;;4.07;100.00;92779.66;2098680;28;20432;-79
2023/10/23 00:12:50;;;;;;;1.17;1.00;;;;;;;4.03;100.00;92777.00;2102780;28;20027;-80
2023/10/23 00:13:51;;;;;;;1.75;1.00;;;;;;;4.12;100.00;92775.84;2096743;28;20020;-80
2023/10/23 00:14:52;;;;;;;0.90;0.70;;;;;;;4.12;100.00;92781.16;2106103;28;20063;-81
2023/10/23 00:15:53;;;;;;;2.05;1.10;;;;;;;4.08;100.00;92775.13;2106193;28;20675;-80
2023/10/23 00:16:54;;;;;;;2.60;0.90;;;;;;;4.09;100.00;92776.66;2106783;28;20038;-80
2023/10/23 00:17:55;;;;;;;1.65;1.10;;;;;;;4.10;100.00;92772.84;2103615;28;20051;-79
2023/10/23 00:19:03;;;;;;;2.45;1.00;;;;;;;4.07;100.00;92776.25;2098527;28;20443;-79
2023/10/23 00:20:05;;;;;;;3.92;1.10;;;;;;;4.10;100.00;92786.06;2100325;28;20036;-80
2023/10/23 00:21:05;;;;;;;0.68;0.65;;;;;;;4.08;100.00;92780.41;2102021;28;20112;-79
2023/10/23 00:22:06;;;;;;;1.20;1.02;;;;;;;4.03;100.00;92779.66;2095121;28;20047;-80
2023/10/23 00:23:07;;;;;;;1.55;1.00;;;;;;;4.05;100.00;92787.22;2101918;28;20024;-79
2023/10/23 00:24:08;;;;;;;1.98;1.20;;;;;;;4.10;100.00;92788.72;2099117;28;20488;-81
2023/10/23 00:25:09;;;;;;;1.30;0.80;;;;;;;4.03;100.00;92795.53;2104469;28;20065;-79
2023/10/23 00:26:11;;;;;;;0.88;0.80;;;;;;;4.07;100.00;92792.88;2114549;28;20020;-80
2023/10/23 00:27:11;;;;;;;2.47;0.90;;;;;;;4.13;100.00;92795.91;2115230;28;20023;-79
2023/10/23 00:28:12;;;;;;;1.52;0.75;;;;;;;4.00;100.00;92791.00;2107222;28;20024;-80
2023/10/23 00:29:13;;;;;;;2.28;1.10;;;;;;;4.00;100.00;92787.63;2108052;27;20081;-80
2023/10/23 00:30:14;;;;;;;2.58;1.00;;;;;;;3.98;100.00;92787.97;2115370;28;20019;-80
2023/10/23 00:31:15;;;;;;;1.20;1.10;;;;;;;3.96;100.00;92784.97;2106036;28;20020;-79
2023/10/23 00:32:16;;;;;;;1.92;0.85;;;;;;;3.93;100.00;92784.97;2115073;28;20125;-81
2023/10/23 00:33:17;;;;;;;4.93;1.00;;;;;;;4.00;100.00;92785.72;2113991;27;20490;-80
2023/10/23 00:34:18;;;;;;;3.63;1.00;;;;;;;3.99;100.00;92786.09;2106249;28;20414;-80
2023/10/23 00:35:19;;;;;;;1.55;0.90;;;;;;;3.95;100.00;92780.84;2098988;28;20384;-80
2023/10/23 00:36:20;;;;;;;1.55;0.90;;;;;;;4.07;100.00;92784.19;2111717;28;20023;-80
2023/10/23 00:37:21;;;;;;;1.30;0.90;;;;;;;4.07;100.00;92774.38;2106624;28;20103;-81
2023/10/23 00:38:22;;;;;;;1.90;0.90;;;;;;;4.02;100.00;92785.34;2098497;28;20586;-80
2023/10/23 00:39:23;;;;;;;1.42;0.80;;;;;;;4.01;100.00;92776.66;2092235;28;20035;-80
2023/10/23 00:40:24;;;;;;;2.25;0.75;;;;;;;4.00;100.00;92777.78;2097845;28;20028;-78
2023/10/23 00:41:25;;;;;;;1.00;0.88;;;;;;;3.97;100.00;92783.09;2097819;28;20032;-79
2023/10/23 00:42:26;;;;;;;2.33;0.85;;;;;;;3.91;100.00;92779.34;2098145;28;20041;-80
2023/10/23 00:43:27;;;;;;;1.38;1.00;;;;;;;3.92;100.00;92773.66;2097129;28;20111;-79
2023/10/23 00:44:30;;;;;;;0.88;0.75;;;;;;;3.86;100.00;92772.53;2105777;28;20052;-78
2023/10/23 00:45:31;;;;;;;1.67;0.80;;;;;;;3.89;100.00;92779.69;2108475;27;20515;-80
2023/10/23 00:46:32;;;;;;;1.38;0.88;;;;;;;3.83;100.00;92775.94;2109083;28;20024;-80
2023/10/23 00:47:33;;;;;;;3.92;1.05;;;;;;;3.85;100.00;92772.91;2097971;28;20877;-80
2023/10/23 00:48:34;;;;;;;1.85;0.70;;;;;;;3.79;100.00;92781.22;2106602;28;20380;-78
2023/10/23 00:49:36;;;;;;;2.15;1.00;;;;;;;3.87;100.00;92781.22;2109383;28;20032;-80
2023/10/23 00:50:37;;;;;;;1.92;0.95;;;;;;;3.76;100.00;92781.97;2106436;28;20086;-80
2023/10/23 00:51:38;;;;;;;0.68;0.65;;;;;;;3.82;100.00;92786.88;2099539;28;20031;-80
2023/10/23 00:52:40;;;;;;;1.20;0.88;;;;;;;3.86;100.00;92788.38;2098956;28;20488;-80
2023/10/23 00:53:42;;;;;;;1.77;0.90;;;;;;;3.82;100.00;92790.31;2106563;28;20028;-81
2023/10/23 00:54:43;;;;;;;1.10;0.77;;;;;;;3.84;100.00;92788.03;2122651;27;20144;-81
2023/10/23 00:55:47;;;;;;;1.15;0.65;;;;;;;3.85;100.00;92780.84;2106150;28;20115;-81
2023/10/23 00:56:48;;;;;;;1.08;0.77;;;;;;;3.72;100.00;92783.88;2106554;27;20020;-79
2023/10/23 00:57:49;;;;;;;3.83;0.88;;;;;;;3.78;100.00;92782.38;2105878;28;20023;-78
2023/10/23 00:59:10;;;;;;;0.80;0.80;;;;;;;3.81;100.00;92778.19;2089626;28;20475;-80
2023/10/23 01:00:11;;;;;;;;;;;;;;;3.66;100.00;92782.00;2111703;27;20031;-79
2023/10/23 01:01:12;;;;;;;2.50;0.60;;;;;;;3.76;100.00;92781.97;2111004;28;19911;-80
2023/10/23 01:02:14;;;;;;;1.50;0.68;;;;;;;3.73;100.00;92782.75;2098211;28;20028;-81
2023/10/23 01:03:15;;;;;;;0.93;0.60;;;;;;;3.73;100.00;92781.97;2099851;28;20505;-82
2023/10/23 01:04:16;;;;;;;1.88;0.80;;;;;;;3.69;100.00;92784.66;2105713;28;20081;-79
2023/10/23 01:05:17;;;;;;;0.52;0.50;;;;;;;3.69;100.00;92787.28;2106230;28;20020;-81
2023/10/23 01:06:18;;;;;;;1.42;0.80;;;;;;;3.73;100.00;92789.91;2097760;28;20028;-80
2023/10/23 01:07:19;;;;;;;1.25;0.88;;;;;;;3.67;100.00;92784.25;2090151;28;20032;-78
2023/10/23 01:08:20;;;;;;;2.75;0.80;;;;;;;3.79;100.00;92789.16;2106049;28;20384;-79
2023/10/23 01:09:21;;;;;;;0.70;0.68;;;;;;;3.70;100.00;92783.50;2112416;28;20019;-79
2023/10/23 01:10:23;;;;;;;3.05;0.93;;;;;;;3.65;100.00;92788.44;2089619;28;20417;-80
2023/10/23 01:11:24;;;;;;;1.33;0.60;;;;;;;3.72;100.00;92786.53;2101789;28;20483;-80
2023/10/23 01:12:25;;;;;;;2.05;0.70;;;;;;;3.67;100.00;92773.69;2097982;28;20028;-80
2023/10/23 01:13:27;;;;;;;1.05;0.80;;;;;;;3.64;100.00;92786.91;2098641;28;20032;-79
2023/10/23 01:14:28;;;;;;;2.65;0.88;;;;;;;3.68;100.00;92777.09;2104380;28;20013;-80
2023/10/23 01:15:29;;;;;;;4.97;0.65;;;;;;;3.66;100.00;92787.28;2107557;28;20023;-80
2023/10/23 01:16:30;;;;;;;1.48;0.77;;;;;;;3.49;100.00;92786.94;2100172;28;20043;-80
2023/10/23 01:17:31;;;;;;;1.73;0.85;;;;;;;3.45;100.00;92790.69;2098636;28;20396;-80
2023/10/23 01:18:32;;;;;;;1.88;0.70;;;;;;;3.47;100.00;92781.28;2098020;28;20071;-80
2023/10/23 01:19:34;;;;;;;2.72;0.75;;;;;;;3.55;100.00;92779.38;2108440;28;20054;-79
2023/10/23 01:20:35;;;;;;;2.55;0.70;;;;;;;3.49;100.00;92779.00;2100401;28;20173;-80
2023/10/23 01:21:37;;;;;;;0.95;0.73;;;;;;;3.57;100.00;92779.00;2105846;28;20023;-81
2023/10/23 01:22:38;;;;;;;1.75;0.90;;;;;;;3.53;100.00;92786.94;2106131;28;20030;-79
2023/10/23 01:23:42;;;;;;;2.25;0.60;;;;;;;3.46;100.00;92771.81;2105727;28;20113;-80
2023/10/23 01:24:46;;;;;;;4.10;0.70;;;;;;;3.50;100.00;92766.53;2110070;27;20027;-79
2023/10/23 01:25:47;;;;;;;1.48;0.80;;;;;;;3.46;100.00;92769.19;2113939;28;20026;-79
2023/10/23 01:26:48;;;;;;;1.20;0.80;;;;;;;3.48;100.00;92764.28;2096984;28;20066;-78
2023/10/23 01:27:49;;;;;;;1.10;0.80;;;;;;;3.47;100.00;92768.06;2091204;28;20021;-78
2023/10/23 01:28:50;;;;;;;1.25;0.65;;;;;;;3.46;100.00;92763.91;2097792;28;20111;-79
2023/10/23 01:29:51;;;;;;;3.17;0.80;;;;;;;3.33;100.00;92769.94;2097577;28;20025;-80
2023/10/23 01:30:52;;;;;;;3.22;0.80;;;;;;;3.31;100.00;92775.63;2098663;28;20046;-80
2023/10/23 01:31:53;;;;;;;2.58;0.88;;;;;;;3.34;100.00;92777.50;2097417;28;20040;-80
2023/10/23 01:32:54;;;;;;;1.33;0.75;;;;;;;3.42;100.00;92767.69;2094831;28;20171;-80
2023/10/23 01:33:55;;;;;;;2.50;0.80;;;;;;;3.43;100.00;92771.84;2097818;28;20028;-81
2023/10/23 01:34:56;;;;;;;1.40;0.60;;;;;;;3.50;100.00;92780.50;2105432;28;20016;-79
2023/10/23 01:35:57;;;;;;;1.70;0.75;;;;;;;3.47;100.00;92770.72;2093702;28;20516;-80
2023/10/23 01:36:58;;;;;;;2.17;0.82;;;;;;;3.42;100.00;92768.41;2089791;28;20020;-79
2023/10/23 01:37:59;;;;;;;0.80;0.75;;;;;;;3.43;100.00;92769.97;2091418;28;20029;-79
2023/10/23 01:39:00;;;;;;;0.73;0.60;;;;;;;3.42;100.00;92771.06;2100767;28;20039;-79
2023/10/23 01:40:01;;;;;;;1.65;0.70;;;;;;;3.46;100.00;92768.44;2101303;28;20032;-79
2023/10/23 01:41:02;;;;;;;1.35;0.77;;;;;;;3.42;100.00;92763.13;2107496;28;20677;-80
2023/10/23 01:42:04;;;;;;;2.90;1.00;;;;;;;3.37;100.00;92768.81;2097500;28;20029;-79
2023/10/23 01:43:05;;;;;;;1.25;0.82;;;;;;;3.38;100.00;92762.41;2107768;28;20040;-81
2023/10/23 01:44:06;;;;;;;0.80;0.80;;;;;;;3.33;100.00;92759.38;2105769;28;20069;-81
2023/10/23 01:45:08;;;;;;;2.13;0.80;;;;;;;3.37;100.00;92763.53;2098144;28;20450;-79
2023/10/23 01:46:09;;;;;;;1.15;0.88;;;;;;;3.38;100.00;92767.69;2104940;28;20028;-78
2023/10/23 01:47:10;;;;;;;0.88;0.80;;;;;;;3.44;100.00;92762.78;2104287;28;20054;-81
2023/10/23 01:48:11;;;;;;;0.98;0.68;;;;;;;3.46;100.00;92760.50;2096606;28;20081;-79
2023/10/23 01:49:12;;;;;;;1.52;0.80;;;;;;;3.40;100.00;92754.84;2101707;28;20025;-79
2023/10/23 01:50:13;;;;;;;1.50;0.70;;;;;;;3.31;100.00;92762.41;2108427;28;20028;-79
2023/10/23 01:51:14;;;;;;;0.93;0.70;;;;;;;3.33;100.00;92768.06;2111361;28;20028;-81
2023/10/23 01:52:15;;;;;;;2.10;0.77;;;;;;;3.27;100.00;92761.66;2105133;28;20111;-81
2023/10/23 01:53:18;;;;;;;2.00;0.52;;;;;;;3.28;100.00;92757.88;2104118;28;20103;-80
2023/10/23 01:54:19;;;;;;;1.17;0.93;;;;;;;3.19;100.00;92763.53;2095498;28;20028;-80
2023/10/23 01:55:20;;;;;;;1.48;0.70;;;;;;;3.28;100.00;92758.63;2105044;28;20460;-80
2023/10/23 01:56:21;;;;;;;1.50;0.60;;;;;;;3.27;100.00;92751.84;2113442;27;20054;-80
2023/10/23 01:57:22;;;;;;;1.75;0.63;;;;;;;3.31;100.00;92759.00;2123085;27;20015;-80
2023/10/23 01:58:22;;;;;;;0.82;0.82;;;;;;;3.34;100.00;92747.69;2105638;28;20097;-79
2023/10/23 01:59:23;;;;;;;4.93;1.10;;;;;;;3.20;100.00;92761.63;2104787;28;20082;-80
2023/10/23 02:00:25;;;;;;;1.65;0.88;;;;;;;3.13;100.00;92762.41;2114186;28;20028;-79
2023/10/23 02:01:26;;;;;;;1.13;0.77;;;;;;;3.21;100.00;92758.66;2118105;27;20102;-80
2023/10/23 02:02:28;;;;;;;2.45;0.90;;;;;;;3.07;100.00;92763.16;2111479;28;20108;-79
2023/10/23 02:03:31;;;;;;;2.08;0.88;;;;;;;3.00;100.00;92763.91;2105509;28;20077;-80
2023/10/23 02:04:34;;;;;;;1.98;0.88;;;;;;;2.89;100.00;92758.59;2097679;28;20116;-80
2023/10/23 02:05:35;;;;;;;2.55;0.82;;;;;;;2.92;100.00;92757.84;2097674;28;20029;-78
2023/10/23 02:06:36;;;;;;;3.63;0.95;;;;;;;2.92;100.00;92754.47;2094757;28;20107;-81
2023/10/23 02:07:37;;;;;;;1.25;0.95;;;;;;;2.97;100.00;92760.13;2114054;27;20020;-79
2023/10/23 02:08:38;;;;;;;0.60;0.60;;;;;;;3.06;100.00;92762.41;2122554;27;20019;-82
2023/10/23 02:09:39;;;;;;;0.68;0.68;;;;;;;3.09;100.00;92756.38;2116981;27;20019;-81
2023/10/23 02:10:40;;;;;;;2.38;0.80;;;;;;;3.08;100.00;92762.03;2105560;28;20066;-80
2023/10/23 02:11:41;;;;;;;1.23;0.88;;;;;;;3.03;100.00;92750.72;2096466;28;20519;-80
2023/10/23 02:12:42;;;;;;;0.57;0.57;;;;;;;3.09;100.00;92755.63;2095831;28;20024;-80
2023/10/23 02:13:43;;;;;;;1.08;0.70;;;;;;;3.10;100.00;92759.75;2102014;28;20024;-79
2023/10/23 02:14:44;;;;;;;2.15;0.90;;;;;;;3.13;100.00;92757.13;2104113;28;20016;-81
2023/10/23 02:15:45;;;;;;;1.17;0.82;;;;;;;3.16;100.00;92768.81;2114173;28;20016;-80
2023/10/23 02:16:46;;;;;;;0.63;0.63;;;;;;;3.15;100.00;92757.50;2112046;28;20047;-80
2023/10/23 02:17:47;;;;;;;1.67;0.73;;;;;;;3.01;100.00;92760.13;2090134;28;20040;-80
2023/10/23 02:18:48;;;;;;;1.63;0.77;;;;;;;2.90;100.00;92764.66;2097185;28;20024;-80
2023/10/23 02:19:49;;;;;;;0.90;0.70;;;;;;;2.93;100.00;92759.38;2096995;28;20047;-79
2023/10/23 02:20:50;;;;;;;1.73;0.63;;;;;;;2.98;100.00;92763.50;2105716;28;20109;-79
2023/10/23 02:23:45;;;;;;;1.20;0.90;;;;;;;2.67;100.00;92763.09;2139299;27;20165;-81
2023/10/23 02:24:46;;;;;;;3.13;1.00;;;;;;;2.71;100.00;92753.31;2125539;27;20552;-79
2023/10/23 02:25:47;;;;;;;1.52;0.70;;;;;;;2.66;100.00;92760.84;2104647;28;20023;-82
2023/10/23 02:26:48;;;;;;;1.30;0.80;;;;;;;2.79;100.00;92764.63;2104490;28;20524;-81
2023/10/23 02:27:49;;;;;;;1.85;0.95;;;;;;;2.69;100.00;92758.22;2106172;27;20556;-81
2023/10/23 02:28:50;;;;;;;2.97;0.75;;;;;;;2.72;100.00;92759.31;2130052;27;20027;-82
2023/10/23 02:29:51;;;;;;;1.27;0.88;;;;;;;2.67;100.00;92755.19;2127902;27;20023;-82
2023/10/23 02:30:52;;;;;;;0.80;0.80;;;;;;;2.73;100.00;92760.84;2112572;28;20032;-83
2023/10/23 02:31:53;;;;;;;1.20;0.80;;;;;;;2.72;100.00;92752.19;2104574;28;20489;-80
2023/10/23 02:32:54;;;;;;;2.17;0.63;;;;;;;2.70;100.00;92759.72;2106895;28;20020;-81
2023/10/23 02:33:55;;;;;;;3.08;1.10;;;;;;;2.62;100.00;92757.44;2113200;28;20047;-81
2023/10/23 02:34:56;;;;;;;0.95;0.70;;;;;;;2.41;100.00;92758.88;2115508;28;20020;-82
2023/10/23 02:35:57;;;;;;;2.35;0.82;;;;;;;2.42;100.00;92752.50;2108940;28;20020;-81
2023/10/23 02:36:58;;;;;;;1.70;0.63;;;;;;;2.35;100.00;92757.75;2113078;27;20634;-82
2023/10/23 02:38:00;;;;;;;2.88;1.17;;;;;;;2.37;100.00;92749.44;2111402;28;20027;-82
2023/10/23 02:39:01;;;;;;;1.13;0.70;;;;;;;2.39;100.00;92752.47;2113238;27;20032;-83
2023/10/23 02:40:03;;;;;;;1.27;0.90;;;;;;;2.44;100.00;92746.84;2112694;28;20027;-81
2023/10/23 02:41:04;;;;;;;0.77;0.70;;;;;;;2.41;100.00;92744.94;2104021;28;20054;-81
2023/10/23 02:42:05;;;;;;;4.15;0.70;;;;;;;2.41;100.00;92750.97;2104381;28;20427;-82
2023/10/23 02:43:06;;;;;;;1.25;0.70;;;;;;;2.32;100.00;92758.47;2108528;28;20047;-81
2023/10/23 02:44:08;;;;;;;2.00;0.90;;;;;;;2.39;100.00;92749.84;2113109;28;20024;-80
2023/10/23 02:45:09;;;;;;;1.02;0.80;;;;;;;2.32;100.00;92753.19;2104346;28;20029;-83
2023/10/23 02:46:10;;;;;;;0.93;0.70;;;;;;;2.42;100.00;92755.13;2097861;28;20047;-82
2023/10/23 02:47:11;;;;;;;0.68;0.60;;;;;;;2.44;100.00;92754.75;2103840;28;20024;-81
2023/10/23 02:48:16;;;;;;;2.28;0.77;;;;;;;2.40;100.00;92757.38;2107541;28;20604;-82
2023/10/23 02:49:17;;;;;;;3.60;0.75;;;;;;;2.42;100.00;92746.47;2113444;27;20030;-82
2023/10/23 02:50:20;;;;;;;2.25;0.80;;;;;;;2.42;100.00;92754.38;2113003;28;20024;-82
2023/10/23 02:51:21;;;;;;;3.20;1.27;;;;;;;2.29;100.00;92753.22;2112588;28;20023;-83
2023/10/23 02:52:22;;;;;;;1.00;0.70;;;;;;;2.33;100.00;92748.69;2096489;28;20020;-82
2023/10/23 02:53:23;;;;;;;0.63;0.63;;;;;;;2.37;100.00;92744.94;2102284;28;20111;-82
2023/10/23 02:54:24;;;;;;;2.22;0.70;;;;;;;2.33;100.00;92757.38;2096014;28;20020;-82
2023/10/23 02:55:26;;;;;;;0.82;0.68;;;;;;;2.28;100.00;92749.78;2104496;28;20516;-82
2023/10/23 02:56:27;;;;;;;2.47;0.80;;;;;;;2.36;100.00;92748.69;2114967;28;20062;-82
2023/10/23 02:57:28;;;;;;;1.58;0.73;;;;;;;2.30;100.00;92747.56;2104497;28;20024;-82
2023/10/23 02:58:29;;;;;;;1.58;0.68;;;;;;;2.20;100.00;92749.03;2103916;28;20016;-82
2023/10/23 02:59:33;;;;;;;1.08;0.73;;;;;;;2.33;100.00;92746.03;2104129;28;20063;-81
2023/10/23 03:00:34;;;;;;;3.50;0.70;;;;;;;2.32;100.00;92752.44;2105195;28;20031;-81
2023/10/23 03:01:35;;;;;;;2.40;0.88;;;;;;;2.32;100.00;92747.94;2109063;28;20031;-82
2023/10/23 03:02:36;;;;;;;0.70;0.65;;;;;;;2.30;100.00;92754.72;2113004;28;20111;-82
2023/10/23 03:03:37;;;;;;;0.82;0.60;;;;;;;2.16;100.00;92750.91;2112086;28;20019;-82
2023/10/23 03:04:38;;;;;;;0.82;0.60;;;;;;;2.23;100.00;92750.16;2101471;28;20760;-83
2023/10/23 03:05:39;;;;;;;2.22;0.70;;;;;;;2.20;100.00;92751.66;2104358;28;20052;-81
2023/10/23 03:06:40;;;;;;;1.33;0.90;;;;;;;2.19;100.00;92755.41;2120889;27;20888;-83
2023/10/23 03:07:41;;;;;;;1.27;0.88;;;;;;;2.11;100.00;92766.31;2112712;28;20035;-82
2023/10/23 03:08:42;;;;;;;1.00;0.80;;;;;;;2.21;100.00;92755.81;2099126;28;20021;-82
2023/10/23 03:09:43;;;;;;;2.17;1.02;;;;;;;2.23;100.00;92752.78;2100723;28;20016;-81
2023/10/23 03:10:44;;;;;;;1.00;0.70;;;;;;;2.23;100.00;92753.53;2096104;28;20073;-82
2023/10/23 03:11:45;;;;;;;1.23;0.70;;;;;;;2.29;100.00;92753.97;2110478;28;20022;-82
2023/10/23 03:12:46;;;;;;;1.55;0.80;;;;;;;2.24;100.00;92747.16;2112442;27;20020;-82
2023/10/23 03:13:48;;;;;;;0.82;0.65;;;;;;;2.26;100.00;92750.19;2121142;28;20034;-81
2023/10/23 03:14:49;;;;;;;1.05;0.73;;;;;;;2.19;100.00;92747.50;2117159;28;20380;-80
2023/10/23 03:15:50;;;;;;;1.67;0.75;;;;;;;2.23;100.00;92750.16;2104166;28;20028;-82
2023/10/23 03:16:51;;;;;;;0.88;0.82;;;;;;;2.19;100.00;92752.03;2103844;28;20461;-82
2023/10/23 03:17:52;;;;;;;0.93;0.80;;;;;;;2.16;100.00;92740.34;2105552;28;20681;-82
2023/10/23 03:18:53;;;;;;;0.85;0.77;;;;;;;2.15;100.00;92749.41;2104105;28;20031;-83
2023/10/23 03:19:54;;;;;;;1.38;0.80;;;;;;;2.12;100.00;92741.47;2095532;28;20025;-82
2023/10/23 03:20:59;;;;;;;2.38;0.60;;;;;;;2.17;100.00;92747.13;2103937;28;20047;-80
2023/10/23 03:22:00;;;;;;;0.73;0.70;;;;;;;2.09;100.00;92736.94;2104172;28;20073;-82
2023/10/23 03:23:01;;;;;;;1.90;0.70;;;;;;;2.11;100.00;92739.94;2098465;28;20021;-82
2023/10/23 03:24:03;;;;;;;2.22;0.88;;;;;;;2.11;100.00;92748.63;2104005;28;20039;-82
2023/10/23 03:25:08;;;;;;;0.98;0.75;;;;;;;2.00;100.00;92753.09;2093520;28;20853;-82
2023/10/23 03:26:08;;;;;;;1.05;0.80;;;;;;;2.03;100.00;92746.34;2104727;28;20016;-82
2023/10/23 03:27:09;;;;;;;1.13;0.90;;;;;;;2.06;100.00;92756.88;2112679;28;20886;-82
2023/10/23 03:28:10;;;;;;;4.88;0.93;;;;;;;2.13;100.00;92750.88;2102540;28;20016;-81
2023/10/23 03:29:11;;;;;;;3.53;1.00;;;;;;;2.19;100.00;92749.38;2104173;28;20567;-82
2023/10/23 03:30:13;;;;;;;1.17;0.70;;;;;;;2.19;100.00;92738.84;2103525;28;20035;-81
2023/10/23 03:31:14;;;;;;;1.20;0.80;;;;;;;2.03;100.00;92744.44;2102196;28;20473;-82
2023/10/23 03:32:15;;;;;;;0.70;0.70;;;;;;;2.05;100.00;92739.53;2104395;28;20468;-81
2023/10/23 03:33:16;;;;;;;1.27;0.90;;;;;;;1.97;100.00;92745.91;2100104;28;20024;-80
2023/10/23 03:34:17;;;;;;;1.30;0.70;;;;;;;2.00;100.00;92748.56;2087260;28;20021;-81
2023/10/23 03:35:18;;;;;;;1.27;0.80;;;;;;;1.89;100.00;92752.28;2088219;28;20557;-81
2023/10/23 03:36:19;;;;;;;3.83;0.80;;;;;;;2.01;100.00;92744.78;2098168;28;20035;-81
2023/10/23 03:37:20;;;;;;;1.08;0.90;;;;;;;2.11;100.00;92738.09;2098229;28;20101;-82
2023/10/23 03:38:21;;;;;;;3.67;0.80;;;;;;;2.12;100.00;92742.22;2098107;28;20021;-82
2023/10/23 03:39:22;;;;;;;1.80;0.80;;;;;;;2.09;100.00;92744.84;2098171;28;20028;-81
2023/10/23 03:40:23;;;;;;;2.13;0.82;;;;;;;2.00;100.00;92750.44;2090910;28;20099;-83
2023/10/23 03:41:25;;;;;;;1.02;0.80;;;;;;;2.03;100.00;92751.59;2103134;28;20021;-82
2023/10/23 03:42:26;;;;;;;1.15;0.80;;;;;;;1.99;100.00;92748.94;2107048;28;20024;-81
2023/10/23 03:43:28;;;;;;;2.42;0.82;;;;;;;2.12;100.00;92749.38;2099436;28;20025;-81
2023/10/23 03:44:28;;;;;;;1.63;0.80;;;;;;;2.20;100.00;92746.41;2098975;28;20499;-80
2023/10/23 03:45:34;;;;;;;1.70;0.90;;;;;;;2.17;100.00;92738.47;2090025;28;20032;-81
2023/10/23 03:46:35;;;;;;;4.28;0.93;;;;;;;2.21;100.00;92747.91;2087229;28;20570;-82
2023/10/23 03:47:36;;;;;;;2.92;0.80;;;;;;;2.20;100.00;92749.03;2098381;28;20028;-81
2023/10/23 03:48:37;;;;;;;0.80;0.80;;;;;;;2.16;100.00;92736.97;2098341;28;20476;-82
2023/10/23 03:49:38;;;;;;;0.73;0.73;;;;;;;2.16;100.00;92742.25;2087652;28;20750;-82
2023/10/23 03:50:39;;;;;;;1.98;0.60;;;;;;;2.16;100.00;92737.72;2090377;28;20017;-82
2023/10/23 03:51:40;;;;;;;1.63;1.02;;;;;;;2.18;100.00;92735.44;2095190;28;20066;-81
2023/10/23 03:52:41;;;;;;;2.15;0.93;;;;;;;2.13;100.00;92729.78;2106867;28;20031;-82
2023/10/23 03:53:42;;;;;;;1.73;0.70;;;;;;;2.07;100.00;92734.69;2106739;28;20023;-82
2023/10/23 03:54:43;;;;;;;1.48;0.80;;;;;;;2.09;100.00;92737.69;2089967;28;20497;-82
2023/10/23 03:55:44;;;;;;;1.00;0.68;;;;;;;2.07;100.00;92736.56;2098177;28;20104;-81
2023/10/23 03:56:45;;;;;;;0.93;0.70;;;;;;;2.09;100.00;92727.13;2098245;28;20028;-82
2023/10/23 03:57:47;;;;;;;1.95;0.70;;;;;;;2.06;100.00;92727.13;2089979;28;20052;-82
2023/10/23 03:58:48;;;;;;;1.35;0.60;;;;;;;1.98;100.00;92735.00;2094919;28;20021;-82
2023/10/23 03:59:49;;;;;;;1.88;0.77;;;;;;;1.92;100.00;92731.22;2094198;28;20017;-84
2023/10/23 04:00:54;;;;;;;1.27;0.95;;;;;;;1.88;100.00;92730.44;2085942;28;20109;-81
2023/10/23 04:01:55;;;;;;;1.08;0.80;;;;;;;1.94;100.00;92731.59;2105541;28;20024;-82
2023/10/23 04:02:56;;;;;;;0.73;0.70;;;;;;;1.89;100.00;92724.06;2106027;28;20091;-82
2023/10/23 04:03:58;;;;;;;1.83;0.70;;;;;;;1.96;100.00;92725.97;2098517;28;20063;-83
2023/10/23 04:05:00;;;;;;;0.63;0.60;;;;;;;1.99;100.00;92728.63;2103288;28;20020;-82
2023/10/23 04:06:04;;;;;;;0.82;0.60;;;;;;;2.01;100.00;92723.72;2096035;28;20024;-82
2023/10/23 04:07:05;;;;;;;1.48;0.73;;;;;;;2.10;100.00;92727.88;2099393;28;20572;-82
2023/10/23 04:08:06;;;;;;;2.72;0.80;;;;;;;2.10;100.00;92726.00;2103349;28;20020;-81
2023/10/23 04:09:07;;;;;;;1.08;0.70;;;;;;;2.00;100.00;92716.94;2096705;28;20461;-81
2023/10/23 04:10:08;;;;;;;3.80;0.77;;;;;;;2.00;100.00;92724.09;2097918;28;20115;-82
2023/10/23 04:11:46;;;;;;;0.50;0.50;;;;;;;1.88;100.00;92721.78;2097018;28;20408;-82
2023/10/23 04:12:48;;;;;;;0.80;0.70;;;;;;;1.85;100.00;92722.53;2094836;28;20492;-83
2023/10/23 04:13:49;;;;;;;1.23;0.75;;;;;;;1.95;100.00;92721.81;2090011;28;20025;-82
2023/10/23 04:14:50;;;;;;;1.65;1.05;;;;;;;2.00;100.00;92729.38;2089796;28;20024;-81
2023/10/23 04:16:02;;;;;;;0.90;0.70;;;;;;;2.00;100.00;92724.09;2095985;28;20017;-82
2023/10/23 04:17:04;;;;;;;0.95;0.80;;;;;;;1.87;100.00;92726.28;2092914;28;20025;-81
2023/10/23 04:18:05;;;;;;;0.90;0.90;;;;;;;1.88;100.00;92727.81;2097887;28;20027;-82
2023/10/23 04:19:06;;;;;;;2.47;0.75;;;;;;;1.92;100.00;92733.09;2106697;28;20687;-82
2023/10/23 04:20:07;;;;;;;1.48;0.73;;;;;;;1.93;100.00;92731.97;2106325;28;20483;-83
2023/10/23 04:21:10;;;;;;;3.08;0.80;;;;;;;1.83;100.00;92736.06;2114239;28;20531;-81
2023/10/23 04:22:11;;;;;;;1.08;0.57;;;;;;;1.87;100.00;92728.94;2109615;28;20020;-82
2023/10/23 04:23:12;;;;;;;0.82;0.70;;;;;;;1.94;100.00;92733.50;2097367;28;20045;-83
2023/10/23 04:24:13;;;;;;;3.50;0.70;;;;;;;1.95;100.00;92732.34;2106411;28;20020;-83
2023/10/23 04:25:14;;;;;;;2.83;1.13;;;;;;;1.91;100.00;92718.41;2106263;28;20028;-80
2023/10/23 04:26:15;;;;;;;3.13;0.80;;;;;;;1.82;100.00;92724.03;2097809;28;20043;-82
2023/10/23 04:27:18;;;;;;;1.85;0.70;;;;;;;1.97;100.00;92716.91;2098600;28;20086;-82
2023/10/23 04:28:19;;;;;;;1.30;0.90;;;;;;;1.98;100.00;92716.56;2101386;28;20154;-79
2023/10/23 04:29:20;;;;;;;2.25;0.70;;;;;;;2.08;100.00;92714.34;2094225;28;20541;-82
2023/10/23 04:30:21;;;;;;;0.93;0.70;;;;;;;2.08;100.00;92715.09;2081874;28;20091;-83
2023/10/23 04:31:22;;;;;;;1.05;0.80;;;;;;;1.99;100.00;92706.78;2083722;28;20088;-82
2023/10/23 04:32:23;;;;;;;2.35;0.98;;;;;;;2.04;100.00;92710.94;2098442;28;20031;-82
2023/10/23 04:33:24;;;;;;;1.77;0.85;;;;;;;1.96;100.00;92708.25;2092707;28;20021;-82
2023/10/23 04:34:25;;;;;;;0.90;0.80;;;;;;;1.90;100.00;92715.03;2098084;28;20023;-82
2023/10/23 04:35:26;;;;;;;1.58;0.90;;;;;;;1.94;100.00;92707.88;2097963;28;20020;-82
2023/10/23 04:36:27;;;;;;;1.73;0.95;;;;;;;1.91;100.00;92708.63;2089286;28;20037;-82
2023/10/23 04:37:28;;;;;;;1.15;0.80;;;;;;;1.90;100.00;92712.38;2098436;28;20028;-82
2023/10/23 04:38:31;;;;;;;2.80;1.00;;;;;;;1.98;100.00;92711.28;2093170;28;20020;-81
2023/10/23 04:39:32;;;;;;;1.55;1.08;;;;;;;1.99;100.00;92707.53;2097614;28;20552;-82
2023/10/23 04:40:33;;;;;;;1.67;1.00;;;;;;;1.97;100.00;92711.66;2106278;28;20035;-83
2023/10/23 04:41:34;;;;;;;1.60;1.23;;;;;;;2.01;100.00;92712.41;2093782;28;20446;-82
2023/10/23 04:42:35;;;;;;;2.75;1.10;;;;;;;1.97;100.00;92704.50;2089644;28;20083;-83
2023/10/23 04:43:36;;;;;;;1.55;1.15;;;;;;;1.89;100.00;92710.09;2088903;28;20035;-84
2023/10/23 04:44:36;;;;;;;3.22;1.35;;;;;;;1.88;100.00;92712.00;2098045;28;20473;-82
2023/10/23 04:45:38;;;;;;;1.55;1.00;;;;;;;1.84;100.00;92718.38;2097854;28;20078;-84
2023/10/23 04:46:39;;;;;;;1.25;1.15;;;;;;;1.92;100.00;92723.31;2096832;28;20385;-84
2023/10/23 04:47:40;;;;;;;2.30;1.70;;;;;;;1.98;100.00;92721.84;2100019;28;20031;-85
2023/10/23 04:48:41;;;;;;;2.63;1.27;;;;;;;1.96;100.00;92718.81;2089268;28;20063;-84
2023/10/23 04:49:42;;;;;;;2.25;1.20;;;;;;;1.98;100.00;92732.38;2097916;28;20020;-83
2023/10/23 04:50:43;;;;;;;1.48;1.38;;;;;;;2.11;100.00;92724.13;2098652;28;20036;-83
2023/10/23 04:51:44;;;;;;;3.05;1.48;;;;;;;2.16;100.00;92724.53;2096615;28;20020;-83